METAR Data
IDs: Format: Raw Decoded Include TAF

Data at: 1623 UTC 18 Feb 2019

METAR for:KSUX (Sioux City/Day Fld, IA, US)
Text:KSUX 181552Z 32012KT 10SM CLR M13/M17 A3047 RMK AO2 SLP344 T11331167 $
Temperature:-13.3°C ( 8°F)
Dewpoint:-16.7°C ( 2°F) [RH = 76%]
Pressure (altimeter):30.47 inches Hg (1031.9 mb) [Sea level pressure: 1034.4 mb]
Winds:from the NW (320 degrees) at 14 MPH (12 knots; 6.2 m/s)
Visibility:10 or more sm (16+ km)
Ceiling:at least 12,000 feet AGL
Clouds:sky clear below 12,000 feet AGL
QC Flag:SOME DATA ABOVE MAY BE INACCURATE!!!"$" is an indication the sensor requires maintenance.